Exeter, Virginia
Current Conditions -  °F | °C
As of 2:15 AM on Sunday 23 Nov 2014 (Local Time) from KLNP Reporting Station
Broken Clouds Broken Clouds  
Wind Chill: 41°   Ceiling: 8500
Heat Index: 46°   Visibility: 10mi
Dew Point: 28°   Wind: 10mph
Humidity: 50%   Direction: 160°SSE
Pressure: 30.16"   Gusts: NA
Location:  36.9224°N, 82.7857°W
Report Text: KLNP 230715Z AUTO 16009KT 10SM BKN085 08/M02 A3016 RMK AO2
Loading
Personal Weather Stations






























Interactive Weather Map New forecast layout! Learn more

10-Day Weather Forecast

Advertisements
Track Severe Weather on mobile